createdAt,value
2019-02-28T00:01:32.955Z,101355.83
2019-02-28T00:04:01.961Z,101343.62
2019-02-28T00:06:31.029Z,101342.76
2019-02-28T00:09:00.272Z,101332.23
2019-02-28T00:11:29.572Z,101348.17
2019-02-28T00:13:58.587Z,101343.97
2019-02-28T00:16:27.885Z,101343.59
2019-02-28T00:18:56.837Z,101336.05
2019-02-28T00:21:26.039Z,101337.77
2019-02-28T00:23:57.324Z,101328.53
2019-02-28T00:26:25.916Z,101324.34
2019-02-28T00:28:56.974Z,101323.09
2019-02-28T00:31:25.670Z,101311.76
2019-02-28T00:33:54.730Z,101305.06
2019-02-28T00:36:23.792Z,101304.23
2019-02-28T00:38:52.839Z,101292.88
2019-02-28T00:41:22.272Z,101284.91
2019-02-28T00:43:51.270Z,101272.72
2019-02-28T00:46:20.342Z,101272.73
2019-02-28T00:48:49.355Z,101271.91
2019-02-28T00:51:18.434Z,101274.03
2019-02-28T00:53:47.762Z,101281.63
2019-02-28T00:56:17.592Z,101276.15
2019-02-28T00:58:47.341Z,101281.22
2019-02-28T01:01:16.397Z,101287.56
2019-02-28T01:03:45.945Z,101295.56
2019-02-28T01:06:14.943Z,101288.84
2019-02-28T01:08:44.047Z,101286.75
2019-02-28T01:11:13.931Z,101288.02
2019-02-28T01:13:43.030Z,101283.81
2019-02-28T01:16:12.033Z,101277.09
2019-02-28T01:18:41.382Z,101299.38
2019-02-28T01:21:10.420Z,101280.04
2019-02-28T01:23:39.480Z,101282.16
2019-02-28T01:26:11.741Z,101267.87
2019-02-28T01:28:39.339Z,101269.97
2019-02-28T01:31:11.557Z,101264.06
2019-02-28T01:33:39.383Z,101267.42
2019-02-28T01:36:08.441Z,101277.07
2019-02-28T01:38:37.469Z,101272.84
2019-02-28T01:41:08.317Z,101273.65
2019-02-28T01:43:37.980Z,101260.59
2019-02-28T01:46:06.995Z,101246.67
2019-02-28T01:48:36.063Z,101236.53
2019-02-28T01:51:05.088Z,101241.13
2019-02-28T01:53:34.135Z,101249.12
2019-02-28T01:56:03.226Z,101252.48
2019-02-28T01:58:32.327Z,101250.78
2019-02-28T02:01:01.851Z,101249.06
2019-02-28T02:03:30.730Z,101253.25
2019-02-28T02:05:59.799Z,101249.89
2019-02-28T02:08:28.821Z,101259.12
2019-02-28T02:10:57.856Z,101248.20
2019-02-28T02:13:26.920Z,101249.06
2019-02-28T02:15:56.347Z,101246.56
2019-02-28T02:18:25.394Z,101248.70
2019-02-28T02:20:54.475Z,101250.83
2019-02-28T02:23:23.797Z,101250.86
2019-02-28T02:25:53.354Z,101246.25
2019-02-28T02:28:26.811Z,101240.81
2019-02-28T02:30:53.185Z,101242.98
2019-02-28T02:33:22.368Z,101240.52
2019-02-28T02:35:51.404Z,101227.08
2019-02-28T02:38:20.467Z,101226.26
2019-02-28T02:40:49.539Z,101219.13
2019-02-28T02:43:22.132Z,101216.20
2019-02-28T02:45:49.327Z,101219.17
2019-02-28T02:48:18.359Z,101217.94
2019-02-28T02:50:47.429Z,101221.36
2019-02-28T02:53:16.784Z,101215.47
2019-02-28T02:55:45.854Z,101219.27
2019-02-28T02:58:14.903Z,101223.08
2019-02-28T03:00:49.338Z,101219.31
2019-02-28T03:03:14.625Z,101213.01
2019-02-28T03:05:43.698Z,101203.75
2019-02-28T03:08:12.757Z,101206.29
2019-02-28T03:10:41.780Z,101198.28
2019-02-28T03:13:10.890Z,101194.06
2019-02-28T03:15:39.906Z,101195.33
2019-02-28T03:18:08.851Z,101198.26
2019-02-28T03:20:41.380Z,101193.63
2019-02-28T03:23:08.702Z,101196.56
2019-02-28T03:25:37.792Z,101202.86
2019-02-28T03:28:06.879Z,101205.40
2019-02-28T03:30:35.947Z,101201.61
2019-02-28T03:33:04.973Z,101193.19
2019-02-28T03:35:41.460Z,101188.14
2019-02-28T03:38:10.189Z,101187.72
2019-02-28T03:40:39.770Z,101184.36
2019-02-28T03:43:07.067Z,101182.25
2019-02-28T03:45:36.494Z,101175.09
2019-02-28T03:48:05.489Z,101183.52
2019-02-28T03:50:34.878Z,101178.48
2019-02-28T03:53:03.906Z,101174.70
2019-02-28T03:55:40.072Z,101175.14
2019-02-28T03:58:05.674Z,101178.52
2019-02-28T04:00:34.891Z,101180.22
2019-02-28T04:03:03.948Z,101173.92
2019-02-28T04:05:33.213Z,101163.84
2019-02-28T04:08:02.342Z,101152.06
2019-02-28T04:10:31.314Z,101151.65
2019-02-28T04:13:00.335Z,101147.47
2019-02-28T04:15:29.400Z,101146.20
2019-02-28T04:17:58.416Z,101142.84
2019-02-28T04:20:27.468Z,101144.52
2019-02-28T04:22:59.885Z,101145.36
2019-02-28T04:25:27.217Z,101140.30
2019-02-28T04:27:56.248Z,101130.18
2019-02-28T04:30:25.311Z,101139.44
2019-02-28T04:32:54.386Z,101134.39
2019-02-28T04:35:25.255Z,101135.65
2019-02-28T04:37:54.153Z,101141.97
2019-02-28T04:40:24.045Z,101130.17
2019-02-28T04:42:53.969Z,101131.00
2019-02-28T04:45:23.293Z,101125.52
2019-02-28T04:47:54.087Z,101126.36
2019-02-28T04:50:23.167Z,101133.10
2019-02-28T04:52:52.191Z,101130.97
2019-02-28T04:55:21.236Z,101134.34
2019-02-28T04:57:51.622Z,101137.72
2019-02-28T05:00:21.086Z,101146.59
2019-02-28T05:02:53.774Z,101144.50
2019-02-28T05:05:20.882Z,101150.39
2019-02-28T05:07:49.952Z,101165.57
2019-02-28T05:10:19.299Z,101163.03
2019-02-28T05:12:50.112Z,101155.02
2019-02-28T05:15:19.172Z,101157.12
2019-02-28T05:17:48.196Z,101154.16
2019-02-28T05:20:17.280Z,101153.31
2019-02-28T05:22:46.301Z,101159.63
2019-02-28T05:25:18.613Z,101170.61
2019-02-28T05:27:46.143Z,101172.30
2019-02-28T05:30:19.388Z,101171.88
2019-02-28T05:32:46.323Z,101174.41
2019-02-28T05:35:15.375Z,101174.41
2019-02-28T05:37:48.235Z,101171.04
2019-02-28T05:40:15.110Z,101183.69
2019-02-28T05:42:44.131Z,101196.76
2019-02-28T05:45:14.718Z,101192.11
2019-02-28T05:47:46.921Z,101188.75
2019-02-28T05:50:16.722Z,101193.81
2019-02-28T05:52:46.060Z,101184.11
2019-02-28T05:55:15.065Z,101182.42
2019-02-28T05:57:44.867Z,101184.95
2019-02-28T06:00:15.485Z,101179.05
2019-02-28T06:02:44.538Z,101177.79
2019-02-28T06:05:13.688Z,101186.64
2019-02-28T06:07:43.051Z,101193.40
2019-02-28T06:10:12.146Z,101180.33
2019-02-28T06:12:43.894Z,101176.53
2019-02-28T06:15:12.046Z,101181.59
2019-02-28T06:17:41.071Z,101187.50
2019-02-28T06:20:10.226Z,101181.59
2019-02-28T06:22:39.303Z,101175.69
2019-02-28T06:25:08.510Z,101183.27
2019-02-28T06:27:41.557Z,101180.32
2019-02-28T06:30:09.526Z,101184.52
2019-02-28T06:32:38.835Z,101197.61
2019-02-28T06:35:08.254Z,101198.05
2019-02-28T06:37:38.245Z,101198.03
2019-02-28T06:40:10.146Z,101205.22
2019-02-28T06:42:39.472Z,101214.91
2019-02-28T06:45:10.746Z,101216.59
2019-02-28T06:47:39.791Z,101222.08
2019-02-28T06:50:13.014Z,101220.37
2019-02-28T06:52:41.201Z,101222.08
2019-02-28T06:55:13.376Z,101225.89
2019-02-28T06:57:42.431Z,101222.08
2019-02-28T07:00:13.432Z,101219.13
2019-02-28T07:02:42.262Z,101234.73
2019-02-28T07:05:11.370Z,101232.20
2019-02-28T07:07:40.432Z,101232.22
2019-02-28T07:10:12.743Z,101225.89
2019-02-28T07:12:41.166Z,101217.00
2019-02-28T07:15:10.694Z,101230.52
2019-02-28T07:17:42.684Z,101234.32
2019-02-28T07:20:12.506Z,101217.84
2019-02-28T07:22:41.536Z,101219.13
2019-02-28T07:25:12.589Z,101227.98
2019-02-28T07:27:41.607Z,101232.60
2019-02-28T07:30:17.522Z,101238.52
2019-02-28T07:32:44.028Z,101230.91
2019-02-28T07:35:13.143Z,101216.15
2019-02-28T07:37:42.773Z,101219.48
2019-02-28T07:40:15.711Z,101217.81
2019-02-28T07:42:43.174Z,101216.13
2019-02-28T07:45:12.728Z,101219.04
2019-02-28T07:47:41.749Z,101222.41
2019-02-28T07:50:11.577Z,101216.48
2019-02-28T07:52:40.637Z,101232.08
2019-02-28T07:55:10.385Z,101239.23
2019-02-28T07:57:39.404Z,101237.14
2019-02-28T08:00:18.328Z,101236.28
2019-02-28T08:02:45.644Z,101232.02
2019-02-28T08:05:14.965Z,101233.71
2019-02-28T08:07:50.287Z,101229.84
2019-02-28T08:10:16.778Z,101231.17
2019-02-28T08:12:46.152Z,101231.09
2019-02-28T08:15:21.064Z,101230.28
2019-02-28T08:17:48.529Z,101241.66
2019-02-28T08:20:17.982Z,101249.27
2019-02-28T08:22:46.994Z,101261.55
2019-02-28T08:25:16.062Z,101256.09
2019-02-28T08:27:45.185Z,101249.33
2019-02-28T08:30:19.510Z,101255.64
2019-02-28T08:32:49.524Z,101245.36
2019-02-28T08:35:18.534Z,101244.77
2019-02-28T08:37:47.611Z,101259.28
2019-02-28T08:40:17.928Z,101258.88
2019-02-28T08:42:47.271Z,101270.73
2019-02-28T08:45:16.465Z,101280.83
2019-02-28T08:47:45.512Z,101282.02
2019-02-28T08:50:20.571Z,101281.95
2019-02-28T08:52:48.879Z,101281.16
2019-02-28T08:55:17.946Z,101287.50
2019-02-28T08:57:54.432Z,101282.81
2019-02-28T09:00:19.000Z,101270.75
2019-02-28T09:02:52.211Z,101266.83
2019-02-28T09:05:18.832Z,101262.34
2019-02-28T09:07:51.173Z,101262.81
2019-02-28T09:10:20.323Z,101264.36
2019-02-28T09:12:49.439Z,101269.38
2019-02-28T09:15:19.102Z,101270.33
2019-02-28T09:17:48.456Z,101278.13
2019-02-28T09:20:17.635Z,101274.66
2019-02-28T09:22:46.660Z,101275.44
2019-02-28T09:25:21.212Z,101288.95
2019-02-28T09:27:46.793Z,101293.15
2019-02-28T09:30:19.136Z,101296.78
2019-02-28T09:32:48.870Z,101302.67
2019-02-28T09:35:18.297Z,101307.35
2019-02-28T09:37:47.314Z,101296.06
2019-02-28T09:40:16.332Z,101292.72
2019-02-28T09:42:47.874Z,101295.71
2019-02-28T09:45:17.872Z,101288.08
2019-02-28T09:47:46.938Z,101285.05
2019-02-28T09:50:19.443Z,101290.63
2019-02-28T09:52:48.533Z,101282.14
2019-02-28T09:55:17.546Z,101286.53
2019-02-28T09:57:46.612Z,101293.92
2019-02-28T10:00:17.306Z,101280.11
2019-02-28T10:02:46.373Z,101279.88
2019-02-28T10:05:15.402Z,101283.68
2019-02-28T10:07:44.628Z,101277.81
2019-02-28T10:10:20.810Z,101280.72
2019-02-28T10:12:49.441Z,101282.91
2019-02-28T10:15:19.663Z,101276.46
2019-02-28T10:17:48.775Z,101269.16
2019-02-28T10:20:20.105Z,101258.91
2019-02-28T10:22:49.122Z,101265.03
2019-02-28T10:25:18.137Z,101274.94
2019-02-28T10:27:48.409Z,101274.28
2019-02-28T10:30:28.221Z,101269.02
2019-02-28T10:32:49.702Z,101276.33
2019-02-28T10:35:18.759Z,101277.14
2019-02-28T10:37:47.897Z,101284.27
2019-02-28T10:40:19.106Z,101283.56
2019-02-28T10:42:49.530Z,101293.30
2019-02-28T10:45:18.559Z,101289.42
2019-02-28T10:47:47.576Z,101278.35
2019-02-28T10:50:18.686Z,101278.43
2019-02-28T10:52:47.701Z,101295.05
2019-02-28T10:55:19.382Z,101282.86
2019-02-28T10:57:48.617Z,101277.70
2019-02-28T11:00:21.322Z,101281.77
2019-02-28T11:02:54.136Z,101289.34
2019-02-28T11:05:25.094Z,101283.04
2019-02-28T11:07:54.210Z,101283.55
2019-02-28T11:10:24.766Z,101279.09
2019-02-28T11:12:54.316Z,101266.22
2019-02-28T11:15:25.857Z,101257.83
2019-02-28T11:17:55.016Z,101256.44
2019-02-28T11:20:26.220Z,101259.58
2019-02-28T11:22:55.755Z,101262.38
2019-02-28T11:25:26.437Z,101267.30
2019-02-28T11:27:55.499Z,101258.53
2019-02-28T11:30:25.344Z,101255.16
2019-02-28T11:32:54.610Z,101259.56
2019-02-28T11:35:23.985Z,101272.86
2019-02-28T11:37:53.082Z,101262.47
2019-02-28T11:40:24.247Z,101278.20
2019-02-28T11:42:53.582Z,101274.20
2019-02-28T11:45:25.562Z,101267.63
2019-02-28T11:47:56.102Z,101268.38
2019-02-28T11:50:25.155Z,101260.71
2019-02-28T11:52:54.170Z,101272.45
2019-02-28T11:55:23.257Z,101284.53
2019-02-28T11:57:52.275Z,101291.98
2019-02-28T12:00:24.737Z,101281.33
2019-02-28T12:02:59.933Z,101287.91
2019-02-28T12:05:24.540Z,101285.77
2019-02-28T12:07:53.920Z,101282.94
2019-02-28T12:10:23.266Z,101282.95
2019-02-28T12:12:52.287Z,101288.95
2019-02-28T12:15:22.703Z,101284.16
2019-02-28T12:17:51.749Z,101275.06
2019-02-28T12:20:25.800Z,101272.62
2019-02-28T12:22:52.106Z,101271.70
2019-02-28T12:25:21.164Z,101270.19
2019-02-28T12:27:50.227Z,101253.89
2019-02-28T12:30:22.022Z,101245.06
2019-02-28T12:32:52.632Z,101241.67
2019-02-28T12:35:21.715Z,101248.58
2019-02-28T12:37:54.028Z,101251.81
2019-02-28T12:40:23.896Z,101251.02
2019-02-28T12:42:52.929Z,101256.62
2019-02-28T12:45:27.358Z,101252.75
2019-02-28T12:47:56.380Z,101257.37
2019-02-28T12:50:25.529Z,101252.60
2019-02-28T12:52:54.862Z,101244.45
2019-02-28T12:55:23.886Z,101244.05
2019-02-28T12:57:54.778Z,101242.09
2019-02-28T13:00:25.903Z,101234.84
2019-02-28T13:02:54.965Z,101233.95
2019-02-28T13:05:23.982Z,101231.84
2019-02-28T13:07:53.042Z,101227.70
2019-02-28T13:10:26.819Z,101223.67
2019-02-28T13:12:52.870Z,101225.80
2019-02-28T13:15:23.367Z,101232.27
2019-02-28T13:17:52.428Z,101234.25
2019-02-28T13:20:22.234Z,101233.27
2019-02-28T13:22:51.324Z,101234.16
2019-02-28T13:25:23.623Z,101241.42
2019-02-28T13:27:51.367Z,101225.86
2019-02-28T13:30:22.086Z,101213.64
2019-02-28T13:32:51.352Z,101219.16
2019-02-28T13:35:22.627Z,101226.18
2019-02-28T13:37:51.658Z,101225.88
2019-02-28T13:40:22.253Z,101230.40
2019-02-28T13:42:51.482Z,101222.88
2019-02-28T13:45:23.135Z,101221.16
2019-02-28T13:47:51.977Z,101215.38
2019-02-28T13:50:25.628Z,101224.20
2019-02-28T13:52:53.819Z,101211.56
2019-02-28T13:55:22.979Z,101207.09
2019-02-28T13:57:52.000Z,101205.72
2019-02-28T14:00:23.070Z,101219.37
2019-02-28T14:02:56.957Z,101215.00
2019-02-28T14:05:26.068Z,101209.09
2019-02-28T14:07:55.086Z,101207.68
2019-02-28T14:10:24.973Z,101213.00
2019-02-28T14:12:56.984Z,101201.98
2019-02-28T14:15:28.070Z,101215.55
2019-02-28T14:17:57.141Z,101212.25
2019-02-28T14:20:27.745Z,101213.98
2019-02-28T14:22:57.284Z,101220.60
2019-02-28T14:25:26.347Z,101227.69
2019-02-28T14:27:56.889Z,101230.58
2019-02-28T14:30:26.736Z,101216.41
2019-02-28T14:32:56.851Z,101204.03
2019-02-28T14:35:26.578Z,101206.34
2019-02-28T14:37:56.941Z,101209.02
2019-02-28T14:40:26.303Z,101209.03
2019-02-28T14:42:55.595Z,101205.36
2019-02-28T14:45:24.637Z,101210.42
2019-02-28T14:47:56.870Z,101204.55
2019-02-28T14:50:24.472Z,101207.74
2019-02-28T14:52:54.391Z,101211.80
2019-02-28T14:55:23.395Z,101205.48
2019-02-28T14:57:52.429Z,101205.86
2019-02-28T15:00:25.047Z,101203.37
2019-02-28T15:02:54.057Z,101195.61
2019-02-28T15:05:23.203Z,101194.01
2019-02-28T15:07:52.327Z,101190.05
2019-02-28T15:10:21.364Z,101185.05
2019-02-28T15:12:50.430Z,101183.92
2019-02-28T15:15:19.720Z,101194.99
2019-02-28T15:17:48.844Z,101179.52
2019-02-28T15:20:17.968Z,101187.14
2019-02-28T15:22:46.982Z,101193.65
2019-02-28T15:25:18.515Z,101192.97
2019-02-28T15:27:47.822Z,101193.71
2019-02-28T15:30:22.356Z,101190.55
2019-02-28T15:32:54.291Z,101204.76
2019-02-28T15:35:22.504Z,101200.77
2019-02-28T15:37:51.563Z,101205.64
2019-02-28T15:40:26.190Z,101208.80
2019-02-28T15:42:55.206Z,101209.45
2019-02-28T15:45:24.270Z,101206.80
2019-02-28T15:47:58.922Z,101207.72
2019-02-28T15:50:28.077Z,101204.52
2019-02-28T15:52:57.669Z,101214.08
2019-02-28T15:55:27.076Z,101207.72
2019-02-28T15:57:56.139Z,101205.77
2019-02-28T16:00:28.549Z,101208.37
2019-02-28T16:02:58.039Z,101211.51
2019-02-28T16:05:27.698Z,101214.23
2019-02-28T16:07:58.124Z,101211.41
2019-02-28T16:10:31.837Z,101215.31
2019-02-28T16:13:00.994Z,101224.66
2019-02-28T16:15:30.598Z,101213.39
2019-02-28T16:17:59.609Z,101220.31
2019-02-28T16:20:31.934Z,101217.36
2019-02-28T16:22:59.381Z,101209.02
2019-02-28T16:25:30.281Z,101213.55
2019-02-28T16:27:59.290Z,101222.96
2019-02-28T16:30:31.560Z,101215.93
2019-02-28T16:32:59.235Z,101206.28
2019-02-28T16:35:29.049Z,101214.83
2019-02-28T16:37:59.105Z,101216.17
2019-02-28T16:40:28.217Z,101210.79
2019-02-28T16:42:57.216Z,101206.63
2019-02-28T16:45:32.074Z,101204.20
2019-02-28T16:48:03.982Z,101197.47
2019-02-28T16:50:33.028Z,101198.42
2019-02-28T16:53:02.107Z,101203.56
2019-02-28T16:55:31.898Z,101209.53
2019-02-28T16:58:01.019Z,101203.25
2019-02-28T17:00:30.944Z,101210.88
2019-02-28T17:03:00.300Z,101212.19
2019-02-28T17:05:30.462Z,101223.58
2019-02-28T17:07:59.497Z,101224.02
2019-02-28T17:10:32.805Z,101224.48
2019-02-28T17:13:30.214Z,101222.83
2019-02-28T17:16:22.097Z,101222.84
2019-02-28T17:18:53.544Z,101222.86
2019-02-28T17:21:22.100Z,101211.50
2019-02-28T17:23:51.174Z,101213.62
2019-02-28T17:26:24.330Z,101214.47
2019-02-28T17:29:07.593Z,101214.48
2019-02-28T17:31:47.889Z,101205.22
2019-02-28T17:34:23.723Z,101212.79
2019-02-28T17:36:50.129Z,101215.30
2019-02-28T17:39:19.147Z,101222.05
2019-02-28T17:41:50.853Z,101225.42
2019-02-28T17:44:49.644Z,101229.22
2019-02-28T17:47:56.115Z,101222.91
2019-02-28T17:50:55.585Z,101229.27
2019-02-28T17:54:04.964Z,101213.21
2019-02-28T17:57:06.245Z,101207.73
2019-02-28T18:00:01.339Z,101206.06
2019-02-28T18:03:29.962Z,101212.39
2019-02-28T18:06:55.069Z,101201.42
2019-02-28T18:10:05.052Z,101208.57
2019-02-28T18:13:42.560Z,101207.70
2019-02-28T18:16:47.178Z,101202.66
2019-02-28T18:19:37.025Z,101213.20
2019-02-28T18:22:27.865Z,101217.84
2019-02-28T18:25:48.639Z,101217.44
2019-02-28T18:28:47.687Z,101218.70
2019-02-28T18:31:19.149Z,101222.48
2019-02-28T18:34:03.463Z,101217.00
2019-02-28T18:36:33.022Z,101224.16
2019-02-28T18:39:02.300Z,101219.11
2019-02-28T18:41:31.921Z,101214.89
2019-02-28T18:44:03.583Z,101211.52
2019-02-28T18:46:32.004Z,101220.37
2019-02-28T18:49:01.311Z,101212.77
2019-02-28T18:51:30.561Z,101211.92
2019-02-28T18:54:00.067Z,101208.98
2019-02-28T18:56:29.641Z,101209.39
2019-02-28T18:58:58.854Z,101207.70
2019-02-28T19:01:29.713Z,101208.13
2019-02-28T19:03:59.412Z,101215.74
2019-02-28T19:06:28.537Z,101218.69
2019-02-28T19:08:57.724Z,101219.98
2019-02-28T19:11:28.153Z,101219.10
2019-02-28T19:13:57.625Z,101226.66
2019-02-28T19:16:26.750Z,101231.72
2019-02-28T19:18:56.044Z,101229.23
2019-02-28T19:21:25.207Z,101233.84
2019-02-28T19:23:54.390Z,101237.22
2019-02-28T19:26:23.554Z,101235.93
2019-02-28T19:28:52.691Z,101241.42
2019-02-28T19:31:22.872Z,101232.61
2019-02-28T19:33:52.049Z,101236.01
2019-02-28T19:36:21.171Z,101226.70
2019-02-28T19:38:50.353Z,101232.20
2019-02-28T19:41:19.443Z,101226.30
2019-02-28T19:43:48.548Z,101225.02
2019-02-28T19:46:17.698Z,101225.47
2019-02-28T19:48:46.694Z,101230.94
2019-02-28T19:51:15.810Z,101236.83
2019-02-28T19:53:44.882Z,101242.27
2019-02-28T19:56:13.927Z,101242.28
2019-02-28T19:58:43.196Z,101249.86
2019-02-28T20:01:19.105Z,101247.76
2019-02-28T20:03:43.462Z,101242.29
2019-02-28T20:06:12.481Z,101239.77
2019-02-28T20:08:41.559Z,101232.20
2019-02-28T20:11:10.573Z,101241.86
2019-02-28T20:13:39.705Z,101249.46
2019-02-28T20:16:08.879Z,101245.67
2019-02-28T20:18:37.847Z,101245.66
2019-02-28T20:21:07.327Z,101233.03
2019-02-28T20:23:36.643Z,101242.34
2019-02-28T20:26:06.041Z,101240.20
2019-02-28T20:28:35.119Z,101237.70
2019-02-28T20:31:05.034Z,101255.36
2019-02-28T20:33:34.099Z,101249.04
2019-02-28T20:36:03.166Z,101254.09
2019-02-28T20:38:32.222Z,101255.78
2019-02-28T20:41:01.335Z,101249.45
2019-02-28T20:43:30.342Z,101243.13
2019-02-28T20:45:59.697Z,101244.39
2019-02-28T20:48:28.807Z,101243.13
2019-02-28T20:50:57.877Z,101247.34
2019-02-28T20:53:26.912Z,101241.02
2019-02-28T20:55:55.964Z,101246.91
2019-02-28T20:58:25.018Z,101243.11
2019-02-28T21:00:54.178Z,101248.16
2019-02-28T21:03:23.337Z,101245.22
2019-02-28T21:05:52.583Z,101239.73
2019-02-28T21:08:21.625Z,101238.83
2019-02-28T21:10:50.657Z,101245.57
2019-02-28T21:13:19.665Z,101251.48
2019-02-28T21:15:48.686Z,101243.87
2019-02-28T21:18:17.705Z,101252.32
2019-02-28T21:20:47.113Z,101245.56
2019-02-28T21:23:16.125Z,101248.52
2019-02-28T21:25:45.258Z,101247.31
2019-02-28T21:28:14.567Z,101239.69
2019-02-28T21:30:43.775Z,101238.84
2019-02-28T21:33:12.969Z,101238.90
2019-02-28T21:35:42.261Z,101239.30
2019-02-28T21:38:11.489Z,101231.72
2019-02-28T21:40:41.033Z,101248.16
2019-02-28T21:43:10.138Z,101243.10
2019-02-28T21:45:40.450Z,101246.48
2019-02-28T21:48:09.563Z,101249.00
2019-02-28T21:50:38.719Z,101244.36
2019-02-28T21:53:07.856Z,101242.25
2019-02-28T21:55:37.036Z,101242.27
2019-02-28T21:58:06.315Z,101246.05
2019-02-28T22:00:35.454Z,101241.37
2019-02-28T22:03:05.325Z,101243.47
2019-02-28T22:05:34.519Z,101245.55
2019-02-28T22:08:03.647Z,101252.32
2019-02-28T22:10:33.023Z,101248.16
2019-02-28T22:13:02.229Z,101236.38
2019-02-28T22:15:31.457Z,101227.11
2019-02-28T22:18:00.724Z,101234.70
2019-02-28T22:20:29.912Z,101227.11
2019-02-28T22:22:59.036Z,101236.39
2019-02-28T22:25:28.259Z,101241.86
2019-02-28T22:27:57.418Z,101240.61
2019-02-28T22:30:51.695Z,101232.59
2019-02-28T22:33:39.325Z,101231.75
2019-02-28T22:36:10.502Z,101227.12
2019-02-28T22:38:40.090Z,101225.43
2019-02-28T22:41:09.567Z,101219.95
2019-02-28T22:43:39.044Z,101209.84
2019-02-28T22:46:08.189Z,101207.73
2019-02-28T22:48:37.301Z,101211.94
2019-02-28T22:51:06.481Z,101208.14
2019-02-28T22:53:35.730Z,101205.19
2019-02-28T22:56:04.885Z,101206.89
2019-02-28T22:58:33.944Z,101208.16
2019-02-28T23:01:06.211Z,101203.09
2019-02-28T23:03:35.775Z,101195.51
2019-02-28T23:06:05.302Z,101208.15
2019-02-28T23:08:34.363Z,101209.00
2019-02-28T23:11:04.155Z,101204.36
2019-02-28T23:13:33.381Z,101201.40
2019-02-28T23:16:02.996Z,101211.52
2019-02-28T23:18:32.311Z,101209.00
2019-02-28T23:21:01.866Z,101212.78
2019-02-28T23:23:30.909Z,101201.80
2019-02-28T23:26:07.204Z,101200.98
2019-02-28T23:28:38.383Z,101196.36
2019-02-28T23:31:44.507Z,101191.72
2019-02-28T23:34:26.733Z,101187.09
2019-02-28T23:36:55.679Z,101192.53
2019-02-28T23:39:24.731Z,101193.40
2019-02-28T23:41:53.974Z,101185.81
2019-02-28T23:44:23.041Z,101180.75
2019-02-28T23:46:52.053Z,101174.43
2019-02-28T23:49:21.430Z,101179.06
2019-02-28T23:51:50.507Z,101174.86
2019-02-28T23:54:19.587Z,101182.45
2019-02-28T23:56:48.633Z,101181.59
2019-02-28T23:59:17.649Z,101171.87
